Time;durP1;ratioP1;P1;durP2;ratioP2;P2;SDS_P1;SDS_P2;PMS_P1;PMS_P2;Temp;Humidity;BMP_temperature;BMP_pressure;BME280_temperature;BME280_humidity;BME280_pressure;Samples;Min_cycle;Max_cycle;Signal;HPM_P1;HPM_P2
2023/09/30 00:00:58;;;;;;;19.63;5.20;;;12.80;99.90;;;;;;5081490;28;20040;-80
2023/09/30 00:03:24;;;;;;;16.65;4.50;;;12.70;99.90;;;;;;5087238;28;20057;-80
2023/09/30 00:05:49;;;;;;;16.27;4.90;;;12.80;99.90;;;;;;5091288;28;20099;-80
2023/09/30 00:08:15;;;;;;;18.17;4.53;;;12.70;99.90;;;;;;5096394;28;20040;-80
2023/09/30 00:10:41;;;;;;;20.40;4.57;;;12.70;99.90;;;;;;5091377;28;20102;-79
2023/09/30 00:13:06;;;;;;;19.13;5.45;;;12.70;99.90;;;;;;5093621;28;20048;-80
2023/09/30 00:15:36;;;;;;;17.30;4.45;;;12.70;99.90;;;;;;5065781;28;20049;-80
2023/09/30 00:18:02;;;;;;;23.27;4.70;;;12.70;99.90;;;;;;5082937;28;20052;-78
2023/09/30 00:20:28;;;;;;;17.58;4.63;;;12.70;99.90;;;;;;5067162;28;20106;-79
2023/09/30 00:22:54;;;;;;;17.30;5.47;;;12.70;99.90;;;;;;5078753;28;20174;-80
2023/09/30 00:25:20;;;;;;;21.05;5.53;;;12.60;99.90;;;;;;5082130;28;20075;-80
2023/09/30 00:27:47;;;;;;;17.50;5.65;;;12.70;99.90;;;;;;5081150;28;20051;-80
2023/09/30 00:30:13;;;;;;;23.27;5.40;;;12.70;99.90;;;;;;5068396;28;20041;-80
2023/09/30 00:32:39;;;;;;;22.88;6.18;;;12.70;99.90;;;;;;5082139;28;20041;-79
2023/09/30 00:35:12;;;;;;;24.02;5.43;;;12.70;99.90;;;;;;5080586;28;20063;-81
2023/09/30 00:37:38;;;;;;;23.60;5.50;;;12.60;99.90;;;;;;5078897;28;20083;-80
2023/09/30 00:40:06;;;;;;;20.42;4.95;;;12.60;99.90;;;;;;5077225;28;20065;-80
2023/09/30 00:42:31;;;;;;;26.03;6.00;;;12.60;99.90;;;;;;5068280;28;20454;-80
2023/09/30 00:44:57;;;;;;;20.73;5.05;;;12.60;99.90;;;;;;5091070;28;20042;-80
2023/09/30 00:47:24;;;;;;;20.55;6.05;;;12.60;99.90;;;;;;5072543;28;20056;-80
2023/09/30 00:49:50;;;;;;;21.10;5.55;;;12.60;99.90;;;;;;5068521;28;20075;-80
2023/09/30 00:52:20;;;;;;;13.90;4.50;;;12.60;99.90;;;;;;5059917;28;20135;-81
2023/09/30 00:54:47;;;;;;;14.68;4.88;;;12.70;99.90;;;;;;5061887;28;20041;-80
2023/09/30 00:57:13;;;;;;;16.30;5.28;;;12.60;99.90;;;;;;5051460;28;20048;-81
2023/09/30 00:59:40;;;;;;;17.67;5.28;;;12.50;99.90;;;;;;5068849;28;20045;-80
2023/09/30 01:02:06;;;;;;;24.63;5.38;;;12.60;99.90;;;;;;5059196;28;20037;-80
2023/09/30 01:04:32;;;;;;;21.35;5.78;;;12.50;99.90;;;;;;5074153;28;20060;-80
2023/09/30 01:06:58;;;;;;;19.15;5.45;;;12.50;99.90;;;;;;5075296;28;20434;-80
2023/09/30 01:09:24;;;;;;;19.52;5.15;;;12.50;99.90;;;;;;5061494;28;20052;-80
2023/09/30 01:11:50;;;;;;;19.40;4.90;;;13.00;99.90;;;;;;5056452;28;20033;-81
2023/09/30 01:14:26;;;;;;;20.83;5.15;;;12.50;99.90;;;;;;5073478;28;20033;-79
2023/09/30 01:16:51;;;;;;;17.38;4.05;;;12.60;99.90;;;;;;5080151;28;20044;-80
2023/09/30 01:19:19;;;;;;;16.55;4.03;;;12.60;99.90;;;;;;5069927;28;20032;-78
2023/09/30 01:21:48;;;;;;;15.55;4.88;;;12.60;99.90;;;;;;5061495;28;20045;-79
2023/09/30 01:24:17;;;;;;;17.63;5.38;;;12.60;99.90;;;;;;5078394;28;20041;-80
2023/09/30 01:26:43;;;;;;;16.58;4.72;;;12.60;99.90;;;;;;5066269;28;20051;-80
2023/09/30 01:29:12;;;;;;;18.88;4.45;;;12.60;99.90;;;;;;5081202;28;20049;-79
2023/09/30 01:31:39;;;;;;;18.95;4.95;;;12.60;99.90;;;;;;5074023;28;20127;-80
2023/09/30 01:34:05;;;;;;;14.85;4.50;;;12.60;99.90;;;;;;5073992;28;20379;-81
2023/09/30 01:36:31;;;;;;;12.60;4.25;;;12.70;99.90;;;;;;5078409;28;20052;-81
2023/09/30 01:38:57;;;;;;;14.02;4.50;;;12.70;99.90;;;;;;5103974;28;20045;-81
2023/09/30 01:41:23;;;;;;;18.33;4.32;;;12.60;99.90;;;;;;5074655;28;20480;-80
2023/09/30 01:43:49;;;;;;;18.10;4.70;;;12.70;99.90;;;;;;5055285;28;20040;-81
2023/09/30 01:46:15;;;;;;;17.40;4.60;;;12.70;99.90;;;;;;5077501;28;20048;-82
2023/09/30 01:48:41;;;;;;;16.77;4.82;;;12.60;99.90;;;;;;5079041;28;20445;-80
2023/09/30 01:51:06;;;;;;;16.25;4.40;;;12.60;99.90;;;;;;5071875;28;20115;-81
2023/09/30 01:53:32;;;;;;;16.80;4.00;;;12.60;99.90;;;;;;5074750;28;20041;-80
2023/09/30 01:55:58;;;;;;;10.02;4.38;;;12.60;99.90;;;;;;5073595;28;20048;-79
2023/09/30 01:58:25;;;;;;;18.40;5.22;;;12.60;99.90;;;;;;5086841;28;20033;-79
2023/09/30 02:00:52;;;;;;;17.13;5.20;;;12.60;99.90;;;;;;5060101;28;20044;-81
2023/09/30 02:03:18;;;;;;;19.75;5.93;;;12.60;99.90;;;;;;5087419;28;20036;-79
2023/09/30 02:05:49;;;;;;;24.55;7.28;;;12.50;99.90;;;;;;5068314;28;20044;-80
2023/09/30 02:08:14;;;;;;;23.48;12.00;;;12.50;99.90;;;;;;5041747;28;20471;-80
2023/09/30 02:10:41;;;;;;;26.58;8.93;;;12.50;99.90;;;;;;5072970;28;20060;-80
2023/09/30 02:13:06;;;;;;;16.92;6.68;;;12.50;99.90;;;;;;5067793;28;20041;-80
2023/09/30 02:15:33;;;;;;;16.65;5.40;;;12.50;99.90;;;;;;5060571;28;20048;-78
2023/09/30 02:18:00;;;;;;;20.40;5.22;;;12.40;99.90;;;;;;5069990;28;20048;-79
2023/09/30 02:20:29;;;;;;;16.13;5.63;;;12.40;99.90;;;;;;5060204;28;20041;-80
2023/09/30 02:22:58;;;;;;;16.92;5.25;;;12.50;99.90;;;;;;5078758;28;20459;-80
2023/09/30 02:25:25;;;;;;;19.88;5.57;;;12.50;99.90;;;;;;5072612;28;20041;-79
2023/09/30 02:27:51;;;;;;;22.85;5.75;;;12.40;99.90;;;;;;5066930;28;20036;-79
2023/09/30 02:30:17;;;;;;;18.98;5.55;;;12.30;99.90;;;;;;5067685;28;20051;-80
2023/09/30 02:32:45;;;;;;;17.58;5.20;;;12.50;99.90;;;;;;5072217;28;20569;-78
2023/09/30 02:35:15;;;;;;;19.92;5.25;;;12.50;99.90;;;;;;5063700;28;20449;-79
2023/09/30 02:37:41;;;;;;;17.20;4.90;;;12.50;99.90;;;;;;5076266;28;20044;-79
2023/09/30 02:40:10;;;;;;;20.60;4.95;;;12.50;99.90;;;;;;5084678;28;20043;-79
2023/09/30 02:42:43;;;;;;;19.63;5.50;;;12.50;99.90;;;;;;5074909;28;20036;-80
2023/09/30 02:45:11;;;;;;;13.43;4.55;;;12.50;99.90;;;;;;5068769;28;20053;-79
2023/09/30 02:47:37;;;;;;;20.00;5.00;;;12.50;99.90;;;;;;5064098;28;20448;-79
2023/09/30 02:50:16;;;;;;;13.48;4.35;;;12.60;99.90;;;;;;5076249;28;20123;-80
2023/09/30 02:52:42;;;;;;;17.27;4.97;;;12.50;99.90;;;;;;5071276;28;20048;-79
2023/09/30 02:55:11;;;;;;;15.85;4.65;;;12.50;99.90;;;;;;5072064;28;20049;-79
2023/09/30 02:57:38;;;;;;;19.05;4.68;;;12.70;99.90;;;;;;5073205;28;20036;-79
2023/09/30 03:00:23;;;;;;;18.83;4.68;;;12.50;99.90;;;;;;5066614;28;20105;-79
2023/09/30 03:02:53;;;;;;;14.02;4.57;;;12.60;99.90;;;;;;5065417;28;20435;-79
2023/09/30 03:05:19;;;;;;;14.45;4.50;;;12.60;99.90;;;;;;5057070;28;20032;-79
2023/09/30 03:07:45;;;;;;;14.80;4.57;;;12.60;99.90;;;;;;5060453;28;20045;-79
2023/09/30 03:10:20;;;;;;;20.95;4.53;;;12.60;99.90;;;;;;5069964;28;20405;-79
2023/09/30 03:12:47;;;;;;;12.68;4.47;;;12.60;99.90;;;;;;5056885;28;20387;-79
2023/09/30 03:15:14;;;;;;;18.80;4.38;;;12.50;99.90;;;;;;5064295;28;20060;-80
2023/09/30 03:17:41;;;;;;;16.90;4.30;;;12.60;99.90;;;;;;5084205;28;20044;-79
2023/09/30 03:20:11;;;;;;;16.95;4.28;;;12.50;99.90;;;;;;5078169;28;20066;-79
2023/09/30 03:22:40;;;;;;;8.57;4.03;;;12.50;99.90;;;;;;5067609;28;20087;-81
2023/09/30 03:25:08;;;;;;;16.98;4.50;;;12.50;99.90;;;;;;5076661;28;20394;-81
2023/09/30 03:27:34;;;;;;;11.18;4.22;;;12.50;99.90;;;;;;5079652;28;20036;-80
2023/09/30 03:30:01;;;;;;;16.90;4.57;;;12.50;99.90;;;;;;5075829;28;20050;-79
2023/09/30 03:32:27;;;;;;;14.23;4.03;;;12.50;99.90;;;;;;5078062;28;20045;-80
2023/09/30 03:34:53;;;;;;;14.30;4.32;;;12.50;99.90;;;;;;5061002;28;20491;-80
2023/09/30 03:37:19;;;;;;;13.88;4.35;;;12.50;99.90;;;;;;5068549;28;20059;-80
2023/09/30 03:39:49;;;;;;;14.43;4.22;;;12.50;99.90;;;;;;5072723;28;20037;-80
2023/09/30 03:42:14;;;;;;;18.92;4.45;;;12.40;99.90;;;;;;5080186;28;20123;-80
2023/09/30 03:44:41;;;;;;;15.57;4.25;;;12.50;99.90;;;;;;5078292;28;20074;-82
2023/09/30 03:47:08;;;;;;;14.15;3.95;;;12.40;99.90;;;;;;5071733;28;20055;-80
2023/09/30 03:49:33;;;;;;;18.00;4.10;;;12.40;99.90;;;;;;5077911;28;20053;-79
2023/09/30 03:52:00;;;;;;;16.75;4.93;;;12.90;99.90;;;;;;5063106;28;20044;-80
2023/09/30 03:54:26;;;;;;;15.65;4.30;;;12.40;99.90;;;;;;5078642;28;20088;-79
2023/09/30 03:56:52;;;;;;;19.00;5.05;;;12.40;99.90;;;;;;5063149;28;20097;-80
2023/09/30 03:59:19;;;;;;;16.67;4.22;;;12.40;99.90;;;;;;5079823;28;20041;-79
2023/09/30 04:01:45;;;;;;;12.27;4.00;;;12.40;99.90;;;;;;5061471;28;20052;-79
2023/09/30 04:04:10;;;;;;;14.57;4.53;;;12.40;99.90;;;;;;5080660;28;20060;-80
2023/09/30 04:06:39;;;;;;;15.20;4.38;;;12.30;99.90;;;;;;5063521;28;20135;-80
2023/09/30 04:09:12;;;;;;;16.00;4.35;;;12.30;99.90;;;;;;5069118;28;20075;-79
2023/09/30 04:11:38;;;;;;;18.58;4.47;;;12.40;99.90;;;;;;5043384;28;20033;-79
2023/09/30 04:14:06;;;;;;;10.80;3.50;;;12.30;99.90;;;;;;5093033;28;20135;-80
2023/09/30 04:16:32;;;;;;;18.92;4.60;;;12.30;99.90;;;;;;5075356;28;20124;-80
2023/09/30 04:18:58;;;;;;;11.95;3.88;;;12.30;99.90;;;;;;5053988;28;20045;-81
2023/09/30 04:21:24;;;;;;;14.10;4.07;;;12.30;99.90;;;;;;5071286;28;20033;-80
2023/09/30 04:23:51;;;;;;;17.63;5.32;;;12.30;99.90;;;;;;5084026;28;20115;-81
2023/09/30 04:26:17;;;;;;;15.90;4.28;;;12.40;99.90;;;;;;5099855;28;20118;-79
2023/09/30 04:28:44;;;;;;;15.98;3.83;;;12.30;99.90;;;;;;5075877;28;20137;-79
2023/09/30 04:31:09;;;;;;;19.17;4.13;;;12.40;99.90;;;;;;5070811;28;20467;-80
2023/09/30 04:33:37;;;;;;;16.95;4.13;;;12.40;99.90;;;;;;5076236;28;20109;-80
2023/09/30 04:36:08;;;;;;;16.05;4.63;;;12.40;99.90;;;;;;5078370;28;20049;-78
2023/09/30 04:38:34;;;;;;;16.48;4.28;;;12.40;99.90;;;;;;5064356;28;20052;-79
2023/09/30 04:41:00;;;;;;;22.33;4.90;;;12.40;99.90;;;;;;5064630;28;20045;-81
2023/09/30 04:43:29;;;;;;;14.82;4.65;;;12.40;99.90;;;;;;5063470;28;20399;-80
2023/09/30 04:45:56;;;;;;;18.90;5.03;;;12.30;99.90;;;;;;5045167;28;20478;-79
2023/09/30 04:48:23;;;;;;;17.30;4.50;;;12.40;99.90;;;;;;5088238;28;20052;-80
2023/09/30 04:50:50;;;;;;;21.08;5.53;;;12.40;99.90;;;;;;5083189;28;20050;-79
2023/09/30 04:53:17;;;;;;;14.52;4.40;;;12.40;99.90;;;;;;5066814;28;20045;-79
2023/09/30 04:55:43;;;;;;;12.95;4.00;;;12.40;99.90;;;;;;5064321;28;20041;-80
2023/09/30 04:58:09;;;;;;;13.80;4.57;;;12.40;99.90;;;;;;5067728;28;20047;-80
2023/09/30 05:00:35;;;;;;;15.15;4.93;;;12.50;99.90;;;;;;5079026;28;20036;-80
2023/09/30 05:03:01;;;;;;;23.65;5.40;;;12.40;99.90;;;;;;5077682;28;20099;-79
2023/09/30 05:05:28;;;;;;;15.48;4.55;;;12.30;99.90;;;;;;5082093;28;20045;-79
2023/09/30 05:07:54;;;;;;;17.83;4.82;;;12.40;99.90;;;;;;5075663;28;20077;-80
2023/09/30 05:10:20;;;;;;;20.40;5.47;;;12.30;99.90;;;;;;5083355;28;20072;-80
2023/09/30 05:12:45;;;;;;;19.40;5.72;;;12.30;99.90;;;;;;5083034;28;20109;-80
2023/09/30 05:15:13;;;;;;;11.88;5.72;;;12.30;99.90;;;;;;5079261;28;20044;-81
2023/09/30 05:17:39;;;;;;;15.95;5.05;;;12.30;99.90;;;;;;5082554;28;20048;-82
2023/09/30 05:20:06;;;;;;;14.73;5.57;;;12.30;99.90;;;;;;5063543;28;20037;-80
2023/09/30 05:22:33;;;;;;;12.30;5.18;;;12.30;99.90;;;;;;5073044;28;20529;-80
2023/09/30 05:25:00;;;;;;;16.35;5.70;;;12.30;99.90;;;;;;5062736;28;20045;-81
2023/09/30 05:27:27;;;;;;;19.50;5.85;;;12.30;99.90;;;;;;5061862;28;20506;-81
2023/09/30 05:29:53;;;;;;;15.40;5.30;;;12.30;99.90;;;;;;5080108;28;20040;-81
2023/09/30 05:32:18;;;;;;;15.35;5.68;;;12.30;99.90;;;;;;5051180;28;20043;-80
2023/09/30 05:34:48;;;;;;;17.50;6.35;;;12.30;99.90;;;;;;5074376;28;20132;-80
2023/09/30 05:37:13;;;;;;;19.33;5.45;;;12.30;99.90;;;;;;5071462;28;20048;-79
2023/09/30 05:39:40;;;;;;;20.00;5.80;;;12.30;99.90;;;;;;5078602;28;20056;-79
2023/09/30 05:42:06;;;;;;;18.10;6.50;;;12.30;99.90;;;;;;5066755;28;20072;-80
2023/09/30 05:44:32;;;;;;;21.05;6.03;;;12.30;99.90;;;;;;5083013;28;20069;-79
2023/09/30 05:46:59;;;;;;;25.70;7.35;;;12.20;99.90;;;;;;5083287;28;20123;-82
2023/09/30 05:49:25;;;;;;;16.08;6.30;;;12.30;99.90;;;;;;5073741;28;20052;-79
2023/09/30 05:51:51;;;;;;;18.45;6.07;;;12.20;99.90;;;;;;5056539;28;20051;-82
2023/09/30 05:54:17;;;;;;;16.33;6.75;;;12.20;99.90;;;;;;5084305;28;20064;-81
2023/09/30 05:56:43;;;;;;;23.80;7.18;;;12.30;99.90;;;;;;5080053;28;20045;-78
2023/09/30 05:59:09;;;;;;;19.83;6.22;;;12.20;99.90;;;;;;5074917;28;20040;-79
2023/09/30 06:01:35;;;;;;;19.20;6.65;;;12.60;99.90;;;;;;5066064;28;20044;-79
2023/09/30 06:04:04;;;;;;;19.20;7.68;;;12.30;99.90;;;;;;5066227;28;20117;-80
2023/09/30 06:06:32;;;;;;;18.10;6.85;;;12.30;99.90;;;;;;5070713;28;20051;-83
2023/09/30 06:08:58;;;;;;;25.42;7.75;;;12.20;99.90;;;;;;5088688;28;20045;-80
2023/09/30 06:11:24;;;;;;;17.17;7.07;;;12.30;99.90;;;;;;5080952;28;20058;-81
2023/09/30 06:14:00;;;;;;;20.17;7.55;;;12.80;99.90;;;;;;5076519;28;20123;-79
2023/09/30 06:16:27;;;;;;;14.82;7.60;;;12.30;99.90;;;;;;5066451;28;20408;-81
2023/09/30 06:18:54;;;;;;;18.60;6.65;;;12.40;99.90;;;;;;5078549;28;20078;-79
2023/09/30 06:21:24;;;;;;;24.83;8.88;;;12.30;99.90;;;;;;5067373;28;20048;-80
2023/09/30 06:23:53;;;;;;;17.20;7.78;;;12.30;99.90;;;;;;5079033;28;20075;-81
2023/09/30 06:26:20;;;;;;;24.63;8.43;;;12.30;99.90;;;;;;5056252;28;20127;-81
2023/09/30 06:28:47;;;;;;;26.02;7.68;;;12.30;99.90;;;;;;5057327;28;20047;-81
2023/09/30 06:31:13;;;;;;;20.25;8.18;;;12.40;99.90;;;;;;5069295;28;20048;-80
2023/09/30 06:33:41;;;;;;;19.02;8.02;;;12.40;99.90;;;;;;5071796;28;20060;-82
2023/09/30 06:36:13;;;;;;;23.85;8.65;;;12.40;99.90;;;;;;5060805;28;20056;-81
2023/09/30 06:38:39;;;;;;;20.40;7.38;;;13.20;99.90;;;;;;5067986;28;20072;-81
2023/09/30 06:41:05;;;;;;;16.17;7.45;;;12.50;99.90;;;;;;5061568;28;20148;-81
2023/09/30 06:43:33;;;;;;;22.58;7.68;;;12.50;99.90;;;;;;5089831;28;20056;-81
2023/09/30 06:45:59;;;;;;;15.65;7.10;;;12.60;99.90;;;;;;5073081;28;20122;-82
2023/09/30 06:48:24;;;;;;;23.17;7.90;;;12.60;99.90;;;;;;5063624;28;20035;-81
2023/09/30 06:50:52;;;;;;;17.40;7.38;;;12.70;99.90;;;;;;5076026;28;20044;-79
2023/09/30 06:53:19;;;;;;;18.70;7.25;;;12.70;99.90;;;;;;5089876;28;20081;-80
2023/09/30 06:55:45;;;;;;;18.13;6.90;;;12.70;99.90;;;;;;5066129;28;20041;-80
2023/09/30 06:58:11;;;;;;;17.25;7.05;;;12.80;99.90;;;;;;5069845;28;20032;-81
2023/09/30 07:00:38;;;;;;;21.92;7.70;;;12.90;99.90;;;;;;5075282;28;20037;-81
2023/09/30 07:03:04;;;;;;;18.25;7.80;;;12.90;99.90;;;;;;5070695;28;20058;-81
2023/09/30 07:05:33;;;;;;;15.50;6.97;;;13.00;99.90;;;;;;5060915;28;20040;-80
2023/09/30 07:07:59;;;;;;;18.70;7.43;;;13.10;99.90;;;;;;5058219;28;20158;-80
2023/09/30 07:10:31;;;;;;;14.73;7.22;;;13.70;99.90;;;;;;5061416;28;20055;-81
2023/09/30 07:13:08;;;;;;;16.60;7.20;;;13.20;99.90;;;;;;5069784;28;20044;-82
2023/09/30 07:15:34;;;;;;;19.90;7.00;;;13.30;99.90;;;;;;5063812;28;20044;-81
2023/09/30 07:17:59;;;;;;;16.85;6.60;;;13.40;99.90;;;;;;5063434;28;20066;-81
2023/09/30 07:20:26;;;;;;;16.15;6.35;;;13.50;99.90;;;;;;5061272;28;20045;-81
2023/09/30 07:22:52;;;;;;;18.20;7.15;;;13.60;99.90;;;;;;5065191;28;20159;-81
2023/09/30 07:25:18;;;;;;;18.48;6.75;;;13.70;99.90;;;;;;5060337;28;20041;-81
2023/09/30 07:27:45;;;;;;;13.68;6.20;;;13.70;99.90;;;;;;5068112;28;20125;-83
2023/09/30 07:30:14;;;;;;;20.58;6.18;;;13.80;99.90;;;;;;5075028;28;20072;-81
2023/09/30 07:32:44;;;;;;;19.92;6.45;;;13.90;99.90;;;;;;5056873;28;20063;-81
2023/09/30 07:35:11;;;;;;;16.05;6.47;;;13.90;99.90;;;;;;5059687;28;20036;-81
2023/09/30 07:37:36;;;;;;;15.80;5.70;;;14.00;99.90;;;;;;5058420;28;20510;-81
2023/09/30 07:40:06;;;;;;;15.27;6.07;;;14.10;99.90;;;;;;5057991;28;20053;-81
2023/09/30 07:42:36;;;;;;;15.48;6.57;;;14.10;99.90;;;;;;5077317;28;20091;-83
2023/09/30 07:45:03;;;;;;;21.33;6.30;;;14.20;99.90;;;;;;5076520;28;20036;-81
2023/09/30 07:47:30;;;;;;;15.73;6.68;;;14.20;99.90;;;;;;5076781;28;20051;-81
2023/09/30 07:49:56;;;;;;;19.15;6.32;;;14.30;99.90;;;;;;5073345;28;20040;-81
2023/09/30 07:52:22;;;;;;;16.30;6.45;;;14.40;99.90;;;;;;5060432;28;20388;-82
2023/09/30 07:54:51;;;;;;;14.85;6.18;;;14.50;99.90;;;;;;5066760;28;20037;-80
2023/09/30 07:57:16;;;;;;;14.68;6.35;;;14.60;99.90;;;;;;5076675;28;20101;-80
2023/09/30 07:59:42;;;;;;;14.02;6.00;;;14.60;99.90;;;;;;5067493;28;20047;-80
2023/09/30 08:02:08;;;;;;;15.30;5.68;;;14.70;99.90;;;;;;5070400;28;20055;-82
2023/09/30 08:04:36;;;;;;;16.27;6.85;;;14.80;99.90;;;;;;5071196;28;20074;-81
2023/09/30 08:07:02;;;;;;;16.58;6.32;;;15.00;99.90;;;;;;5075338;28;20063;-82
2023/09/30 08:09:34;;;;;;;17.60;5.82;;;15.10;99.90;;;;;;5083801;28;20053;-81
2023/09/30 08:12:02;;;;;;;13.77;5.63;;;15.20;99.90;;;;;;5082351;28;20059;-83
2023/09/30 08:14:28;;;;;;;;;;;15.30;99.90;;;;;;5070844;28;20105;-81
2023/09/30 08:16:54;;;;;;;14.55;6.13;;;15.40;99.90;;;;;;5063446;28;20386;-82
2023/09/30 08:19:23;;;;;;;13.10;6.28;;;15.50;99.90;;;;;;5068282;28;20100;-83
2023/09/30 08:21:52;;;;;;;19.85;6.72;;;15.60;99.90;;;;;;5073609;28;20084;-84
2023/09/30 08:24:17;;;;;;;17.48;6.30;;;15.70;99.90;;;;;;5089779;28;20443;-82
2023/09/30 08:26:46;;;;;;;12.82;5.45;;;15.80;99.90;;;;;;5086349;28;20037;-82
2023/09/30 08:29:12;;;;;;;20.15;6.53;;;16.40;99.90;;;;;;5048720;28;20052;-81
2023/09/30 08:31:38;;;;;;;13.63;5.75;;;16.00;99.90;;;;;;5086410;28;20098;-84
2023/09/30 08:34:05;;;;;;;15.20;5.03;;;16.10;99.90;;;;;;5084041;28;20052;-82
2023/09/30 08:36:34;;;;;;;11.80;5.05;;;16.20;99.90;;;;;;5070281;28;20052;-83
2023/09/30 08:39:00;;;;;;;14.07;4.93;;;16.30;99.90;;;;;;5083923;28;20075;-81
2023/09/30 08:41:33;;;;;;;18.92;4.80;;;16.50;99.90;;;;;;5064696;28;20052;-83
2023/09/30 08:44:03;;;;;;;16.00;4.68;;;16.60;99.90;;;;;;5082271;28;20046;-82
2023/09/30 08:46:33;;;;;;;15.68;5.18;;;16.80;99.90;;;;;;5077169;28;20037;-81
2023/09/30 08:49:03;;;;;;;12.48;4.70;;;16.90;99.90;;;;;;5076811;28;20104;-81
2023/09/30 08:51:30;;;;;;;11.57;4.05;;;17.00;99.90;;;;;;5082560;28;20044;-82
2023/09/30 08:53:56;;;;;;;19.50;5.25;;;17.10;99.90;;;;;;5080194;28;20118;-82
2023/09/30 08:56:29;;;;;;;16.75;4.50;;;17.30;99.90;;;;;;5075344;28;20044;-83
2023/09/30 08:59:00;;;;;;;12.27;3.75;;;17.40;99.90;;;;;;5066309;28;20048;-83
2023/09/30 09:01:29;;;;;;;13.43;4.50;;;17.50;99.90;;;;;;5084776;28;20056;-83
2023/09/30 09:03:56;;;;;;;10.80;3.67;;;17.60;99.90;;;;;;5086100;28;20041;-82
2023/09/30 09:06:23;;;;;;;12.85;3.72;;;17.60;99.90;;;;;;5072561;28;20052;-83
2023/09/30 09:08:52;;;;;;;14.55;3.92;;;17.80;99.90;;;;;;5089928;28;20132;-83
2023/09/30 09:11:18;;;;;;;17.10;4.35;;;17.80;99.90;;;;;;5075636;28;20094;-82
2023/09/30 09:13:49;;;;;;;16.77;4.72;;;17.90;99.90;;;;;;5091358;28;20109;-83
2023/09/30 09:16:18;;;;;;;15.13;4.13;;;18.00;99.90;;;;;;5082381;28;20083;-83
2023/09/30 09:18:44;;;;;;;15.55;4.38;;;18.20;99.90;;;;;;5086765;28;20075;-82
2023/09/30 09:21:17;;;;;;;13.52;3.72;;;18.10;99.90;;;;;;5081593;28;20049;-82
2023/09/30 09:23:45;;;;;;;16.00;4.03;;;18.30;99.90;;;;;;5077807;28;20493;-83
2023/09/30 09:26:38;;;;;;;16.13;4.03;;;18.40;99.90;;;;;;5081163;28;20051;-83
2023/09/30 09:29:07;;;;;;;15.35;4.32;;;18.50;99.90;;;;;;5082472;28;20041;-83
2023/09/30 09:31:36;;;;;;;11.65;3.30;;;18.60;99.90;;;;;;5065703;28;20375;-83
2023/09/30 09:34:03;;;;;;;17.10;4.38;;;18.70;99.90;;;;;;5049432;28;20067;-83
2023/09/30 09:36:48;;;;;;;19.98;3.80;;;18.80;99.90;;;;;;5069170;28;20094;-82
2023/09/30 09:39:15;;;;;;;8.75;3.42;;;18.80;99.90;;;;;;5065180;28;20105;-82
2023/09/30 09:41:54;;;;;;;11.50;3.70;;;19.00;99.90;;;;;;5083358;28;20112;-83
2023/09/30 09:44:21;;;;;;;14.68;4.47;;;19.00;99.90;;;;;;5085202;28;20041;-82
2023/09/30 09:46:50;;;;;;;13.77;4.50;;;19.10;99.90;;;;;;5068817;28;20052;-82
2023/09/30 09:49:19;;;;;;;12.82;4.13;;;19.20;99.90;;;;;;5086960;28;20390;-82
2023/09/30 09:51:46;;;;;;;13.32;4.15;;;19.30;99.90;;;;;;5079803;28;20040;-82
2023/09/30 09:54:16;;;;;;;13.40;4.20;;;19.50;99.90;;;;;;5085030;28;20510;-82
2023/09/30 09:56:45;;;;;;;10.52;3.45;;;19.70;99.90;;;;;;5068820;28;20056;-82
2023/09/30 09:59:17;;;;;;;10.55;3.03;;;19.80;99.90;;;;;;5083933;28;20510;-81
2023/09/30 10:01:45;;;;;;;13.52;3.95;;;19.90;99.90;;;;;;5089816;28;20130;-82
2023/09/30 10:04:11;;;;;;;13.95;3.47;;;20.10;99.90;;;;;;5088488;28;20051;-82
2023/09/30 10:06:40;;;;;;;12.75;4.80;;;20.10;99.90;;;;;;5089464;28;20452;-82
2023/09/30 10:09:11;;;;;;;12.13;4.00;;;20.30;99.90;;;;;;5089764;28;20084;-83
2023/09/30 10:11:40;;;;;;;12.02;3.42;;;20.50;99.90;;;;;;5099519;28;20041;-82
2023/09/30 10:14:14;;;;;;;12.60;3.30;;;20.50;99.90;;;;;;5087899;28;20401;-82
2023/09/30 10:16:42;;;;;;;14.02;3.40;;;20.50;99.90;;;;;;5088436;28;20063;-82
2023/09/30 10:19:22;;;;;;;16.42;3.90;;;20.30;99.90;;;;;;5055815;28;20041;-82
2023/09/30 10:22:17;;;;;;;8.90;3.03;;;20.30;99.90;;;;;;5087735;28;20044;-81
2023/09/30 10:24:43;;;;;;;13.32;3.03;;;20.10;99.90;;;;;;5087934;28;20108;-82
2023/09/30 10:27:24;;;;;;;10.10;2.88;;;20.00;99.90;;;;;;5075359;28;20045;-83
2023/09/30 10:30:10;;;;;;;13.98;2.78;;;20.20;99.90;;;;;;5093721;28;20044;-82
2023/09/30 10:32:51;;;;;;;;;;;20.30;99.90;;;;;;5082523;28;20125;-83
2023/09/30 10:35:32;;;;;;;9.52;2.58;;;20.10;99.90;;;;;;5084560;28;19927;-81
2023/09/30 10:38:27;;;;;;;7.22;2.33;;;20.10;99.90;;;;;;5085130;28;20044;-82
2023/09/30 10:40:53;;;;;;;11.38;3.05;;;20.40;99.90;;;;;;5085498;28;20072;-83
2023/09/30 10:43:41;;;;;;;10.95;2.28;;;20.80;99.90;;;;;;5071866;28;20041;-81
2023/09/30 10:46:30;;;;;;;9.13;2.65;;;21.20;99.90;;;;;;5071339;28;20049;-83
2023/09/30 10:49:24;;;;;;;9.45;2.72;;;21.40;99.90;;;;;;5073022;28;20120;-82
2023/09/30 10:51:55;;;;;;;11.40;2.92;;;21.40;99.90;;;;;;5081711;28;20055;-82
2023/09/30 10:54:25;;;;;;;10.52;2.97;;;21.10;99.90;;;;;;5086242;28;20056;-82
2023/09/30 10:56:52;;;;;;;7.57;2.17;;;21.30;99.90;;;;;;5095873;28;20075;-83
2023/09/30 10:59:25;;;;;;;8.60;2.53;;;21.60;99.90;;;;;;5078405;28;20087;-84
2023/09/30 11:01:52;;;;;;;12.32;2.58;;;22.10;99.90;;;;;;5078521;28;20041;-82
2023/09/30 11:04:21;;;;;;;12.43;2.88;;;22.40;99.90;;;;;;5068881;28;20465;-84
2023/09/30 11:06:47;;;;;;;9.40;2.33;;;22.70;99.90;;;;;;5080532;28;20036;-83
2023/09/30 11:09:21;;;;;;;9.68;2.85;;;23.10;99.90;;;;;;5072426;28;20072;-84
2023/09/30 11:11:52;;;;;;;8.00;2.30;;;23.30;99.90;;;;;;5071314;28;20558;-83
2023/09/30 11:14:28;;;;;;;7.82;2.10;;;23.60;99.90;;;;;;5092504;28;20037;-81
2023/09/30 11:16:56;;;;;;;8.27;2.97;;;23.60;99.90;;;;;;5059644;28;20045;-81
2023/09/30 11:19:23;;;;;;;10.90;3.05;;;23.50;99.90;;;;;;5074013;28;20284;-81
2023/09/30 11:21:51;;;;;;;11.65;3.03;;;23.40;99.90;;;;;;5048810;28;20049;-84
2023/09/30 11:24:20;;;;;;;7.82;2.00;;;23.20;99.90;;;;;;5056148;28;20375;-83
2023/09/30 11:26:46;;;;;;;9.30;2.50;;;22.80;99.90;;;;;;5063453;28;20072;-82
2023/09/30 11:29:15;;;;;;;7.25;2.10;;;22.60;99.90;;;;;;5069071;28;20048;-82
2023/09/30 11:31:46;;;;;;;12.05;2.40;;;22.50;99.90;;;;;;5081485;28;20044;-80
2023/09/30 11:34:19;;;;;;;8.63;2.15;;;22.30;99.90;;;;;;5074265;28;20110;-82
2023/09/30 11:36:54;;;;;;;10.82;2.13;;;21.90;99.90;;;;;;5074653;28;20051;-83
2023/09/30 11:39:28;;;;;;;9.25;2.90;;;21.20;99.90;;;;;;5086090;28;20044;-84
2023/09/30 11:41:56;;;;;;;8.40;2.30;;;20.70;99.90;;;;;;5073504;28;20041;-83
2023/09/30 11:44:22;;;;;;;5.72;2.08;;;20.30;99.90;;;;;;5093725;28;20040;-82
2023/09/30 11:46:55;;;;;;;7.72;2.00;;;20.00;99.90;;;;;;5085644;28;20044;-83
2023/09/30 11:49:26;;;;;;;10.13;2.30;;;19.80;99.90;;;;;;5082985;28;20040;-82
2023/09/30 11:51:53;;;;;;;8.05;2.47;;;19.50;99.90;;;;;;5068722;28;20594;-82
2023/09/30 11:54:18;;;;;;;10.25;2.92;;;19.40;99.90;;;;;;5072346;28;20132;-83
2023/09/30 11:56:45;;;;;;;12.90;2.55;;;19.10;99.90;;;;;;5077357;28;20033;-81
2023/09/30 11:59:10;;;;;;;8.40;2.08;;;19.10;99.90;;;;;;5073162;28;20052;-81
2023/09/30 12:01:39;;;;;;;11.02;2.63;;;18.90;99.90;;;;;;5074882;28;20025;-82
2023/09/30 12:04:06;;;;;;;10.98;2.55;;;18.80;99.90;;;;;;5096031;28;20020;-83
2023/09/30 12:06:34;;;;;;;7.47;2.10;;;18.60;99.90;;;;;;5082843;28;20075;-81
2023/09/30 12:08:59;;;;;;;9.65;1.98;;;18.60;99.90;;;;;;5075986;28;20029;-84
2023/09/30 12:11:25;;;;;;;12.57;2.22;;;18.90;99.90;;;;;;5076459;28;20052;-83
2023/09/30 12:13:51;;;;;;;12.77;2.65;;;18.50;99.90;;;;;;5072104;28;20045;-85
2023/09/30 12:16:21;;;;;;;9.00;2.47;;;18.40;99.90;;;;;;5073318;28;20055;-85
2023/09/30 12:18:46;;;;;;;9.50;2.35;;;18.40;99.90;;;;;;5090183;28;20047;-84
2023/09/30 12:21:20;;;;;;;8.48;2.30;;;18.40;99.90;;;;;;5069692;28;20048;-83
2023/09/30 12:23:46;;;;;;;10.30;2.42;;;18.50;99.90;;;;;;5088488;28;20060;-83
2023/09/30 12:26:12;;;;;;;11.77;2.45;;;18.50;99.90;;;;;;5087182;28;20037;-84
2023/09/30 12:28:43;;;;;;;13.80;2.75;;;18.70;99.90;;;;;;5096872;28;20091;-82
2023/09/30 12:31:11;;;;;;;8.00;1.98;;;19.50;99.90;;;;;;5083156;28;20104;-82
2023/09/30 12:33:40;;;;;;;8.00;2.30;;;19.10;99.90;;;;;;5081171;28;20109;-83
2023/09/30 12:36:15;;;;;;;9.13;2.22;;;19.50;99.90;;;;;;5083977;28;20083;-84
2023/09/30 12:38:41;;;;;;;14.82;2.45;;;20.00;99.90;;;;;;5099874;28;20037;-82
2023/09/30 12:41:06;;;;;;;7.13;2.03;;;20.30;99.90;;;;;;5074315;28;20052;-84
2023/09/30 12:43:32;;;;;;;10.50;2.72;;;20.30;99.90;;;;;;5082890;28;20055;-81